San Javier, Bolivia
Current Conditions -  °F | °C
As of 6:00 AM on Thursday 29 Jan 2015 (Local Time) from SLVR Reporting Station
Broken Clouds Broken Clouds  
Wind Chill: 75°   Ceiling: 500
Heat Index: 75°   Visibility: 6mi
Dew Point: 73°   Wind: 16mph
Humidity: 94%   Direction: 340°NNW
Pressure: 29.88"   Gusts: NA
Location:  16.27°S, 62.47°W
Report Text: SLVR 291000Z 34014KT 9999 BKN005 BKN015 FEW027CB 24/23 Q1012
Loading
Personal Weather Stations






























Interactive Weather Map New forecast layout! Learn more

10-Day Weather Forecast

Advertisements
Track Severe Weather on mobile